createdAt,value
2019-03-11T00:00:20.347Z,4.80
2019-03-11T00:02:48.783Z,5.40
2019-03-11T00:05:17.254Z,5.43
2019-03-11T00:07:45.653Z,5.00
2019-03-11T00:10:14.159Z,5.30
2019-03-11T00:12:42.769Z,5.90
2019-03-11T00:15:11.343Z,5.67
2019-03-11T00:17:40.071Z,6.23
2019-03-11T00:20:09.731Z,7.33
2019-03-11T00:22:38.170Z,9.37
2019-03-11T00:25:07.436Z,5.90
2019-03-11T00:27:35.844Z,6.57
2019-03-11T00:30:13.306Z,7.70
2019-03-11T00:32:41.765Z,11.37
2019-03-11T00:35:10.173Z,9.33
2019-03-11T00:37:38.615Z,7.90
2019-03-11T00:40:10.413Z,9.10
2019-03-11T00:42:39.036Z,9.70
2019-03-11T00:45:10.475Z,7.03
2019-03-11T00:47:38.860Z,7.07
2019-03-11T00:50:09.932Z,9.70
2019-03-11T00:52:38.600Z,9.57
2019-03-11T00:55:09.777Z,9.30
2019-03-11T00:57:38.303Z,11.87
2019-03-11T01:00:29.316Z,8.30
2019-03-11T01:02:57.784Z,8.20
2019-03-11T01:05:27.169Z,7.37
2019-03-11T01:07:59.251Z,8.57
2019-03-11T01:10:27.810Z,10.80
2019-03-11T01:12:56.300Z,7.53
2019-03-11T01:15:24.940Z,7.60
2019-03-11T01:17:53.395Z,7.60
2019-03-11T01:20:21.858Z,7.43
2019-03-11T01:22:50.282Z,6.67
2019-03-11T01:25:18.834Z,9.63
2019-03-11T01:27:47.252Z,7.30
2019-03-11T01:30:16.807Z,6.27
2019-03-11T01:32:45.248Z,8.87
2019-03-11T01:35:13.824Z,5.90
2019-03-11T01:37:42.284Z,10.77
2019-03-11T01:40:16.272Z,7.23
2019-03-11T01:42:47.603Z,10.03
2019-03-11T01:45:18.255Z,8.17
2019-03-11T01:47:46.663Z,10.10
2019-03-11T01:50:15.803Z,6.10
2019-03-11T01:52:44.322Z,11.33
2019-03-11T01:55:13.922Z,10.57
2019-03-11T01:57:42.408Z,7.13
2019-03-11T02:00:18.638Z,4.33
2019-03-11T02:02:48.565Z,8.50
2019-03-11T02:05:17.547Z,6.80
2019-03-11T02:07:45.956Z,8.10
2019-03-11T02:10:18.886Z,10.97
2019-03-11T02:12:47.837Z,5.53
2019-03-11T02:15:17.781Z,7.10
2019-03-11T02:17:46.263Z,12.00
2019-03-11T02:20:17.136Z,9.57
2019-03-11T02:22:45.513Z,10.80
2019-03-11T02:25:15.472Z,9.20
2019-03-11T02:27:44.028Z,9.70
2019-03-11T02:30:18.471Z,10.93
2019-03-11T02:32:46.871Z,10.27
2019-03-11T02:35:21.182Z,9.73
2019-03-11T02:37:49.588Z,8.63
2019-03-11T02:40:18.699Z,17.17
2019-03-11T02:42:47.174Z,16.37
2019-03-11T02:45:15.582Z,8.40
2019-03-11T02:47:44.057Z,10.60
2019-03-11T02:50:13.297Z,11.97
2019-03-11T02:52:41.760Z,11.90
2019-03-11T02:55:10.368Z,11.13
2019-03-11T02:57:38.742Z,8.70
2019-03-11T03:00:19.313Z,11.97
2019-03-11T03:02:49.528Z,12.90
2019-03-11T03:05:22.544Z,12.20
2019-03-11T03:07:51.065Z,8.37
2019-03-11T03:10:19.483Z,14.43
2019-03-11T03:12:47.889Z,10.13
2019-03-11T03:15:16.415Z,19.83
2019-03-11T03:17:44.850Z,18.77
2019-03-11T03:20:15.824Z,15.80
2019-03-11T03:22:44.295Z,12.57
2019-03-11T03:25:14.617Z,12.83
2019-03-11T03:27:43.215Z,10.73
2019-03-11T03:30:15.032Z,15.90
2019-03-11T03:32:43.567Z,14.10
2019-03-11T03:35:12.550Z,13.20
2019-03-11T03:37:41.237Z,17.00
2019-03-11T03:40:11.886Z,14.07
2019-03-11T03:42:40.432Z,16.37
2019-03-11T03:45:22.718Z,16.63
2019-03-11T03:47:51.651Z,14.37
2019-03-11T03:50:22.077Z,19.63
2019-03-11T03:52:50.641Z,16.87
2019-03-11T03:55:19.165Z,12.70
2019-03-11T03:57:47.656Z,15.17
2019-03-11T04:00:16.606Z,11.90
2019-03-11T04:02:45.059Z,13.53
2019-03-11T04:05:14.036Z,16.73
2019-03-11T04:07:42.555Z,11.47
2019-03-11T04:10:16.379Z,11.17
2019-03-11T04:12:45.326Z,9.27
2019-03-11T04:15:14.695Z,10.53
2019-03-11T04:17:43.949Z,8.70
2019-03-11T04:20:15.110Z,7.53
2019-03-11T04:22:43.535Z,5.70
2019-03-11T04:25:12.273Z,9.70
2019-03-11T04:27:40.879Z,5.70
2019-03-11T04:30:18.296Z,6.00
2019-03-11T04:32:46.775Z,5.93
2019-03-11T04:35:15.307Z,4.80
2019-03-11T04:37:43.727Z,7.03
2019-03-11T04:40:14.492Z,6.27
2019-03-11T04:42:43.084Z,5.00
2019-03-11T04:45:14.018Z,5.43
2019-03-11T04:47:42.417Z,5.60
2019-03-11T04:50:13.203Z,6.27
2019-03-11T04:52:41.658Z,7.10
2019-03-11T04:55:12.436Z,7.17
2019-03-11T04:57:43.267Z,8.17
2019-03-11T05:00:14.719Z,5.17
2019-03-11T05:02:43.169Z,4.87
2019-03-11T05:05:11.835Z,5.60
2019-03-11T05:07:40.259Z,8.40
2019-03-11T05:10:16.155Z,4.17
2019-03-11T05:12:43.615Z,5.83
2019-03-11T05:15:14.374Z,3.57
2019-03-11T05:17:42.864Z,3.37
2019-03-11T05:20:13.445Z,3.50
2019-03-11T05:22:42.302Z,3.00
2019-03-11T05:25:14.823Z,2.70
2019-03-11T05:27:43.261Z,4.37
2019-03-11T05:30:17.080Z,7.83
2019-03-11T05:32:45.557Z,3.57
2019-03-11T05:35:14.002Z,8.00
2019-03-11T05:37:42.402Z,4.57
2019-03-11T05:40:18.578Z,5.30
2019-03-11T05:42:47.526Z,3.97
2019-03-11T05:45:19.931Z,3.23
2019-03-11T05:47:48.673Z,5.10
2019-03-11T05:50:18.263Z,4.43
2019-03-11T05:52:46.735Z,2.90
2019-03-11T05:55:15.375Z,6.03
2019-03-11T05:57:43.750Z,6.33
2019-03-11T06:00:21.985Z,4.97
2019-03-11T06:02:50.412Z,7.20
2019-03-11T06:05:18.946Z,8.00
2019-03-11T06:07:47.420Z,4.60
2019-03-11T06:10:16.684Z,4.27
2019-03-11T06:12:45.086Z,4.27
2019-03-11T06:15:14.993Z,7.20
2019-03-11T06:17:43.605Z,4.83
2019-03-11T06:20:27.995Z,6.57
2019-03-11T06:22:56.924Z,5.87
2019-03-11T06:25:25.352Z,7.03
2019-03-11T06:27:53.859Z,8.23
2019-03-11T06:30:22.297Z,8.33
2019-03-11T06:32:50.696Z,5.53
2019-03-11T06:35:20.837Z,6.90
2019-03-11T06:37:49.259Z,6.07
2019-03-11T06:40:17.746Z,10.27
2019-03-11T06:42:46.127Z,5.13
2019-03-11T06:45:15.067Z,8.60
2019-03-11T06:47:43.496Z,8.70
2019-03-11T06:50:13.468Z,9.83
2019-03-11T06:52:41.992Z,13.23
2019-03-11T06:55:12.048Z,12.87
2019-03-11T06:57:40.618Z,13.83
2019-03-11T07:00:20.152Z,10.67
2019-03-11T07:02:48.603Z,12.60
2019-03-11T07:05:20.523Z,13.30
2019-03-11T07:07:47.345Z,7.87
2019-03-11T07:10:16.711Z,12.73
2019-03-11T07:12:45.147Z,12.87
2019-03-11T07:15:17.030Z,16.27
2019-03-11T07:17:46.116Z,12.60
2019-03-11T07:20:17.115Z,6.20
2019-03-11T07:22:45.548Z,8.93
2019-03-11T07:25:14.110Z,12.50
2019-03-11T07:27:42.597Z,8.00
2019-03-11T07:30:16.946Z,12.57
2019-03-11T07:32:45.500Z,8.27
2019-03-11T07:35:14.061Z,13.43
2019-03-11T07:37:42.421Z,8.33
2019-03-11T07:40:14.023Z,11.67
2019-03-11T07:42:42.541Z,10.70
2019-03-11T07:45:13.088Z,8.73
2019-03-11T07:47:41.513Z,11.43
2019-03-11T07:50:12.416Z,7.83
2019-03-11T07:52:40.827Z,11.77
2019-03-11T07:55:11.005Z,6.77
2019-03-11T07:57:40.215Z,11.77
2019-03-11T08:00:17.195Z,12.17
2019-03-11T08:02:45.705Z,6.70
2019-03-11T08:05:14.363Z,12.57
2019-03-11T08:07:42.804Z,10.20
2019-03-11T08:10:16.608Z,8.77
2019-03-11T08:12:45.287Z,6.60
2019-03-11T08:15:14.819Z,9.17
2019-03-11T08:17:43.470Z,8.90
2019-03-11T08:20:15.603Z,9.20
2019-03-11T08:22:44.022Z,8.87
2019-03-11T08:25:13.887Z,11.90
2019-03-11T08:27:42.471Z,5.70
2019-03-11T08:30:34.738Z,8.00
2019-03-11T08:33:03.187Z,14.47
2019-03-11T08:35:31.621Z,7.83
2019-03-11T08:38:04.789Z,11.53
2019-03-11T08:40:30.402Z,9.23
2019-03-11T08:42:58.862Z,6.73
2019-03-11T08:45:27.378Z,8.67
2019-03-11T08:47:55.970Z,6.50
2019-03-11T08:50:24.460Z,8.73
2019-03-11T08:52:53.619Z,5.17
2019-03-11T08:55:22.232Z,6.23
2019-03-11T08:57:51.672Z,2.43
2019-03-11T09:00:24.394Z,6.80
2019-03-11T09:02:52.818Z,3.53
2019-03-11T09:05:21.278Z,3.87
2019-03-11T09:07:49.714Z,6.83
2019-03-11T09:10:19.547Z,5.80
2019-03-11T09:12:48.125Z,2.97
2019-03-11T09:15:18.426Z,3.87
2019-03-11T09:17:46.909Z,3.00
2019-03-11T09:20:16.683Z,4.10
2019-03-11T09:22:46.194Z,7.20
2019-03-11T09:25:19.320Z,6.60
2019-03-11T09:27:50.480Z,6.63
2019-03-11T09:30:23.576Z,3.97
2019-03-11T09:32:52.148Z,5.50
2019-03-11T09:35:20.706Z,6.70
2019-03-11T09:37:49.147Z,6.97
2019-03-11T09:40:19.965Z,4.57
2019-03-11T09:42:48.508Z,7.10
2019-03-11T09:45:18.298Z,3.73
2019-03-11T09:47:47.354Z,7.77
2019-03-11T09:50:16.896Z,7.60
2019-03-11T09:52:45.400Z,6.53
2019-03-11T09:55:22.262Z,5.87
2019-03-11T09:57:50.669Z,3.97
2019-03-11T10:00:23.976Z,6.13
2019-03-11T10:02:53.456Z,11.70
2019-03-11T10:05:22.445Z,4.97
2019-03-11T10:07:50.969Z,5.90
2019-03-11T10:10:28.059Z,4.90
2019-03-11T10:12:56.592Z,4.43
2019-03-11T10:15:25.072Z,5.73
2019-03-11T10:17:53.783Z,4.70
2019-03-11T10:20:22.275Z,7.07
2019-03-11T10:22:50.773Z,5.03
2019-03-11T10:25:20.682Z,4.90
2019-03-11T10:27:49.170Z,5.37
2019-03-11T10:30:21.374Z,2.50
2019-03-11T10:32:49.956Z,5.67
2019-03-11T10:35:31.485Z,6.90
2019-03-11T10:37:49.509Z,4.43
2019-03-11T10:40:22.570Z,4.33
2019-03-11T10:42:51.058Z,2.40
2019-03-11T10:45:30.335Z,2.47
2019-03-11T10:47:49.858Z,4.93
2019-03-11T10:50:19.837Z,2.50
2019-03-11T10:52:48.759Z,3.33
2019-03-11T10:55:19.575Z,2.23
2019-03-11T10:57:48.123Z,2.97
2019-03-11T11:00:29.392Z,2.33
2019-03-11T11:02:57.932Z,3.80
2019-03-11T11:05:26.502Z,2.97
2019-03-11T11:07:55.110Z,2.37
2019-03-11T11:10:23.644Z,2.57
2019-03-11T11:12:52.701Z,2.07
2019-03-11T11:15:25.490Z,4.23
2019-03-11T11:17:54.262Z,4.70
2019-03-11T11:20:23.748Z,2.20
2019-03-11T11:22:53.605Z,2.43
2019-03-11T11:25:26.901Z,2.63
2019-03-11T11:27:55.615Z,4.13
2019-03-11T11:30:28.602Z,2.67
2019-03-11T11:32:57.569Z,2.23
2019-03-11T11:35:26.003Z,2.00
2019-03-11T11:37:54.799Z,8.63
2019-03-11T11:40:27.935Z,3.97
2019-03-11T11:42:56.476Z,3.57
2019-03-11T11:45:27.290Z,4.37
2019-03-11T11:47:55.880Z,3.93
2019-03-11T11:50:25.627Z,4.97
2019-03-11T11:52:54.489Z,4.60
2019-03-11T11:55:24.082Z,4.63
2019-03-11T11:57:52.610Z,3.70
2019-03-11T12:00:33.792Z,4.83
2019-03-11T12:03:02.337Z,5.13
2019-03-11T12:05:30.836Z,2.67
2019-03-11T12:07:59.303Z,4.43
2019-03-11T12:10:29.421Z,5.47
2019-03-11T12:12:57.935Z,6.70
2019-03-11T12:15:26.424Z,3.83
2019-03-11T12:17:55.337Z,8.67
2019-03-11T12:20:28.155Z,3.17
2019-03-11T12:22:56.630Z,5.90
2019-03-11T12:25:25.280Z,3.83
2019-03-11T12:27:54.746Z,4.20
2019-03-11T12:30:34.520Z,9.10
2019-03-11T12:33:03.108Z,7.00
2019-03-11T12:35:31.618Z,5.17
2019-03-11T12:38:00.174Z,5.37
2019-03-11T12:40:28.832Z,5.73
2019-03-11T12:42:57.284Z,14.87
2019-03-11T12:45:26.751Z,7.23
2019-03-11T12:47:55.250Z,4.90
2019-03-11T12:50:31.806Z,6.97
2019-03-11T12:53:00.665Z,7.80
2019-03-11T12:55:29.387Z,3.57
2019-03-11T12:57:58.193Z,4.90
2019-03-11T13:00:26.927Z,9.97
2019-03-11T13:02:55.397Z,4.87
2019-03-11T13:05:23.908Z,7.03
2019-03-11T13:07:52.490Z,6.17
2019-03-11T13:10:23.439Z,6.00
2019-03-11T13:12:52.367Z,5.80
2019-03-11T13:15:21.003Z,15.43
2019-03-11T13:17:49.800Z,5.03
2019-03-11T13:20:27.119Z,9.57
2019-03-11T13:22:55.719Z,8.00
2019-03-11T13:25:24.180Z,4.97
2019-03-11T13:27:52.669Z,8.13
2019-03-11T13:30:21.112Z,4.27
2019-03-11T13:32:50.170Z,3.27
2019-03-11T13:35:18.775Z,6.17
2019-03-11T13:37:47.303Z,5.90
2019-03-11T13:40:16.680Z,3.63
2019-03-11T13:42:45.198Z,7.87
2019-03-11T13:45:18.570Z,3.43
2019-03-11T13:47:47.106Z,4.37
2019-03-11T13:50:17.804Z,3.67
2019-03-11T13:52:46.367Z,5.33
2019-03-11T13:55:16.618Z,3.60
2019-03-11T13:57:45.292Z,1.70
2019-03-11T14:00:17.593Z,5.07
2019-03-11T14:02:47.785Z,1.67
2019-03-11T14:05:16.335Z,3.03
2019-03-11T14:07:44.942Z,1.53
2019-03-11T14:10:14.710Z,1.57
2019-03-11T14:12:43.248Z,2.60
2019-03-11T14:15:14.211Z,2.10
2019-03-11T14:17:42.870Z,3.07
2019-03-11T14:20:12.985Z,3.37
2019-03-11T14:22:41.412Z,6.43
2019-03-11T14:25:12.129Z,2.10
2019-03-11T14:27:41.466Z,4.57
2019-03-11T14:30:15.258Z,2.80
2019-03-11T14:32:43.686Z,2.33
2019-03-11T14:35:15.088Z,4.17
2019-03-11T14:37:43.532Z,4.90
2019-03-11T14:40:16.580Z,3.40
2019-03-11T14:42:44.995Z,3.07
2019-03-11T14:45:18.496Z,2.90
2019-03-11T14:47:46.947Z,2.30
2019-03-11T14:50:16.606Z,4.13
2019-03-11T14:52:45.044Z,3.77
2019-03-11T14:55:14.750Z,4.53
2019-03-11T14:57:44.463Z,5.53
2019-03-11T15:00:21.056Z,3.50
2019-03-11T15:02:49.882Z,6.87
2019-03-11T15:05:19.638Z,5.00
2019-03-11T15:07:48.504Z,9.97
2019-03-11T15:10:19.215Z,4.97
2019-03-11T15:12:48.658Z,4.63
2019-03-11T15:15:25.220Z,7.10
2019-03-11T15:17:53.886Z,6.47
2019-03-11T15:20:22.471Z,6.03
2019-03-11T15:22:50.998Z,4.17
2019-03-11T15:25:19.902Z,5.63
2019-03-11T15:27:48.622Z,7.13
2019-03-11T15:30:19.479Z,7.37
2019-03-11T15:32:48.751Z,6.93
2019-03-11T15:35:17.715Z,9.33
2019-03-11T15:37:47.618Z,9.63
2019-03-11T15:40:17.120Z,7.87
2019-03-11T15:42:45.750Z,6.30
2019-03-11T15:45:15.800Z,5.23
2019-03-11T15:47:44.477Z,12.17
2019-03-11T15:50:21.918Z,7.13
2019-03-11T15:52:50.466Z,6.80
2019-03-11T15:55:18.941Z,5.73
2019-03-11T15:57:47.679Z,7.93
2019-03-11T16:00:24.137Z,4.73
2019-03-11T16:02:52.813Z,5.90
2019-03-11T16:05:25.374Z,6.37
2019-03-11T16:07:54.443Z,5.30
2019-03-11T16:10:23.463Z,6.27
2019-03-11T16:12:52.610Z,5.60
2019-03-11T16:15:21.559Z,7.20
2019-03-11T16:17:50.204Z,9.23
2019-03-11T16:20:23.469Z,8.17
2019-03-11T16:22:52.093Z,7.17
2019-03-11T16:25:20.803Z,6.00
2019-03-11T16:27:49.873Z,5.73
2019-03-11T16:30:28.319Z,7.47
2019-03-11T16:33:00.219Z,7.13
2019-03-11T16:35:28.918Z,5.87
2019-03-11T16:37:57.451Z,6.80
2019-03-11T16:40:25.950Z,9.17
2019-03-11T16:42:54.461Z,5.10
2019-03-11T16:45:22.955Z,11.03
2019-03-11T16:47:51.483Z,5.70
2019-03-11T16:50:22.478Z,5.77
2019-03-11T16:52:50.933Z,7.07
2019-03-11T16:55:23.301Z,7.37
2019-03-11T16:57:53.646Z,5.50
2019-03-11T17:00:24.483Z,8.47
2019-03-11T17:02:53.013Z,5.90
2019-03-11T17:05:21.647Z,3.87
2019-03-11T17:07:50.076Z,5.97
2019-03-11T17:10:23.127Z,6.27
2019-03-11T17:12:51.636Z,4.87
2019-03-11T17:15:20.195Z,2.83
2019-03-11T17:17:48.630Z,2.10
2019-03-11T17:20:18.892Z,4.40
2019-03-11T17:22:47.293Z,2.90
2019-03-11T17:25:16.280Z,3.47
2019-03-11T17:27:44.703Z,1.93
2019-03-11T17:30:24.392Z,2.70
2019-03-11T17:32:52.954Z,3.03
2019-03-11T17:35:21.534Z,3.93
2019-03-11T17:37:50.037Z,2.30
2019-03-11T17:40:20.399Z,2.47
2019-03-11T17:42:49.029Z,3.03
2019-03-11T17:45:18.140Z,2.90
2019-03-11T17:47:46.563Z,2.93
2019-03-11T17:50:21.271Z,2.87
2019-03-11T17:52:50.159Z,2.70
2019-03-11T17:55:19.645Z,3.63
2019-03-11T17:57:49.596Z,2.53
2019-03-11T18:00:26.124Z,3.43
2019-03-11T18:02:54.776Z,3.87
2019-03-11T18:05:23.691Z,3.47
2019-03-11T18:07:52.308Z,2.37
2019-03-11T18:10:21.290Z,4.07
2019-03-11T18:12:50.585Z,3.10
2019-03-11T18:15:19.088Z,2.53
2019-03-11T18:17:47.570Z,3.37
2019-03-11T18:20:21.120Z,2.20
2019-03-11T18:22:49.713Z,4.63
2019-03-11T18:25:21.654Z,4.20
2019-03-11T18:27:50.451Z,4.77
2019-03-11T18:30:21.029Z,2.37
2019-03-11T18:32:49.739Z,2.53
2019-03-11T18:35:18.740Z,4.03
2019-03-11T18:37:47.311Z,2.80
2019-03-11T18:40:19.982Z,3.93
2019-03-11T18:42:48.503Z,4.97
2019-03-11T18:45:18.158Z,4.47
2019-03-11T18:47:46.629Z,5.37
2019-03-11T18:50:17.938Z,4.47
2019-03-11T18:52:46.305Z,4.87
2019-03-11T18:55:15.177Z,4.30
2019-03-11T18:57:43.746Z,9.60
2019-03-11T19:00:15.308Z,7.03
2019-03-11T19:02:43.835Z,8.47
2019-03-11T19:05:15.038Z,11.33
2019-03-11T19:07:43.683Z,9.33
2019-03-11T19:10:14.769Z,13.37
2019-03-11T19:12:43.371Z,10.40
2019-03-11T19:15:14.934Z,12.37
2019-03-11T19:17:43.423Z,12.13
2019-03-11T19:20:14.588Z,13.07
2019-03-11T19:22:43.176Z,10.00
2019-03-11T19:25:12.239Z,11.47
2019-03-11T19:27:40.655Z,11.17
2019-03-11T19:30:12.424Z,10.90
2019-03-11T19:32:40.864Z,12.50
2019-03-11T19:35:09.489Z,11.03
2019-03-11T19:37:37.925Z,7.97
2019-03-11T19:40:10.117Z,8.80
2019-03-11T19:42:38.603Z,11.50
2019-03-11T19:45:10.003Z,11.07
2019-03-11T19:47:38.991Z,6.90
2019-03-11T19:50:10.491Z,7.50
2019-03-11T19:52:38.921Z,11.97
2019-03-11T19:55:07.594Z,8.17
2019-03-11T19:57:36.061Z,7.93
2019-03-11T20:00:07.876Z,8.80
2019-03-11T20:02:36.916Z,7.20
2019-03-11T20:05:08.155Z,8.33
2019-03-11T20:07:36.599Z,11.53
2019-03-11T20:10:07.953Z,8.23
2019-03-11T20:12:36.807Z,6.80
2019-03-11T20:15:08.616Z,8.63
2019-03-11T20:17:37.086Z,8.23
2019-03-11T20:20:14.572Z,10.77
2019-03-11T20:22:43.031Z,11.83
2019-03-11T20:25:23.274Z,10.47
2019-03-11T20:27:51.756Z,10.17
2019-03-11T20:30:22.504Z,13.43
2019-03-11T20:32:51.111Z,11.50
2019-03-11T20:35:20.538Z,10.77
2019-03-11T20:37:49.060Z,10.40
2019-03-11T20:40:17.827Z,14.90
2019-03-11T20:42:46.272Z,10.90
2019-03-11T20:45:19.100Z,10.40
2019-03-11T20:47:47.775Z,8.87
2019-03-11T20:50:17.732Z,14.37
2019-03-11T20:52:46.711Z,9.77
2019-03-11T20:55:16.652Z,11.23
2019-03-11T20:57:45.087Z,13.33
2019-03-11T21:00:21.697Z,10.90
2019-03-11T21:02:50.446Z,11.93
2019-03-11T21:05:28.021Z,16.10
2019-03-11T21:07:56.537Z,14.37
2019-03-11T21:10:25.022Z,11.57
2019-03-11T21:12:53.490Z,14.07
2019-03-11T21:15:21.950Z,11.97
2019-03-11T21:17:50.378Z,10.00
2019-03-11T21:20:18.980Z,12.30
2019-03-11T21:22:47.489Z,15.07
2019-03-11T21:25:20.868Z,11.57
2019-03-11T21:27:49.511Z,14.00
2019-03-11T21:30:20.025Z,13.23
2019-03-11T21:32:48.598Z,10.37
2019-03-11T21:35:17.196Z,10.40
2019-03-11T21:37:45.714Z,17.73
2019-03-11T21:40:21.871Z,10.57
2019-03-11T21:42:50.513Z,13.73
2019-03-11T21:45:19.331Z,12.00
2019-03-11T21:47:50.763Z,13.43
2019-03-11T21:50:25.880Z,14.10
2019-03-11T21:52:54.288Z,12.90
2019-03-11T21:55:22.838Z,12.80
2019-03-11T21:57:51.382Z,11.00
2019-03-11T22:00:33.717Z,14.17
2019-03-11T22:02:54.782Z,16.43
2019-03-11T22:05:23.936Z,12.13
2019-03-11T22:07:52.353Z,16.20
2019-03-11T22:10:21.787Z,13.03
2019-03-11T22:12:50.199Z,15.10
2019-03-11T22:15:21.684Z,13.17
2019-03-11T22:17:50.136Z,11.60
2019-03-11T22:20:18.607Z,14.00
2019-03-11T22:22:47.184Z,21.17
2019-03-11T22:25:16.720Z,12.90
2019-03-11T22:27:45.225Z,12.07
2019-03-11T22:30:18.908Z,16.00
2019-03-11T22:32:47.502Z,14.20
2019-03-11T22:35:16.313Z,14.97
2019-03-11T22:37:44.806Z,16.80
2019-03-11T22:40:18.077Z,13.77
2019-03-11T22:42:46.472Z,18.57
2019-03-11T22:45:19.798Z,14.00
2019-03-11T22:47:49.271Z,12.13
2019-03-11T22:50:18.241Z,15.50
2019-03-11T22:52:47.419Z,20.97
2019-03-11T22:55:17.535Z,14.23
2019-03-11T22:57:45.974Z,20.17
2019-03-11T23:00:35.536Z,16.73
2019-03-11T23:03:06.722Z,19.33
2019-03-11T23:05:34.625Z,19.60
2019-03-11T23:08:03.071Z,20.87
2019-03-11T23:10:31.514Z,21.73
2019-03-11T23:13:00.581Z,19.57
2019-03-11T23:15:29.079Z,18.13
2019-03-11T23:17:57.518Z,27.40
2019-03-11T23:20:25.959Z,16.23
2019-03-11T23:22:54.410Z,14.87
2019-03-11T23:25:22.856Z,20.27
2019-03-11T23:27:51.270Z,21.17
2019-03-11T23:30:19.864Z,14.67
2019-03-11T23:32:48.276Z,20.70
2019-03-11T23:35:16.711Z,18.30
2019-03-11T23:37:45.172Z,20.53
2019-03-11T23:40:13.761Z,26.87
2019-03-11T23:42:42.202Z,20.80
2019-03-11T23:45:11.762Z,22.37
2019-03-11T23:47:40.252Z,21.17
2019-03-11T23:50:13.812Z,21.47
2019-03-11T23:52:42.222Z,21.73
2019-03-11T23:55:11.750Z,21.53
2019-03-11T23:57:40.206Z,24.03
